createdAt,value
2016-06-18T18:29:48.517Z,1480
2016-06-18T18:30:50.146Z,1452
2016-06-18T18:33:03.950Z,1376
2016-06-18T18:33:49.172Z,1360
2016-06-18T18:34:49.848Z,1332
2016-06-18T18:35:49.601Z,1308
2016-06-18T18:36:50.244Z,1292
2016-06-18T18:38:03.608Z,1272
2016-06-18T18:39:03.626Z,1256
2016-06-18T18:39:50.052Z,1240
2016-06-18T18:40:49.650Z,1220
2016-06-18T18:41:49.027Z,1196
2016-06-18T18:42:50.312Z,1168
2016-06-18T18:45:19.554Z,1104
2016-06-18T18:45:50.150Z,1088
2016-06-18T18:47:03.920Z,1048
2016-06-18T18:48:49.286Z,988
2016-06-18T18:49:49.742Z,960
2016-06-18T18:51:03.340Z,928
2016-06-18T18:51:49.374Z,904
2016-06-18T18:52:50.628Z,876
2016-06-18T18:53:49.148Z,852
2016-06-18T18:55:21.701Z,816
2016-06-18T18:55:49.404Z,808
2016-06-18T18:56:48.954Z,788
2016-06-18T18:57:49.833Z,772
2016-06-18T18:58:49.430Z,752
2016-06-18T18:59:50.902Z,740
2016-06-18T19:01:04.687Z,720
2016-06-18T19:02:05.753Z,704
2016-06-18T19:02:49.459Z,684
2016-06-18T19:03:49.260Z,668
2016-06-18T19:04:49.482Z,648
2016-06-18T19:05:49.299Z,632
2016-06-18T19:06:48.679Z,616
2016-06-18T19:07:49.902Z,596
2016-06-18T19:08:48.906Z,572
2016-06-18T19:10:03.724Z,532
2016-06-18T19:10:48.712Z,508
2016-06-18T19:12:04.591Z,472
2016-06-18T19:13:49.380Z,416
2016-06-18T19:14:48.743Z,384
2016-06-18T19:15:50.450Z,356
2016-06-18T19:17:03.813Z,320
2016-06-18T19:17:50.269Z,300
2016-06-18T19:18:50.257Z,276
2016-06-18T19:19:50.261Z,256
2016-06-18T19:20:48.811Z,236
2016-06-18T19:22:49.693Z,196
2016-06-18T19:23:49.931Z,180
2016-06-18T19:24:49.668Z,164
2016-06-18T19:25:49.063Z,148
2016-06-18T19:26:50.347Z,132
2016-06-18T19:27:50.350Z,124
2016-06-18T19:29:04.120Z,112
2016-06-18T19:29:50.576Z,104
2016-06-18T19:30:50.377Z,96
2016-06-18T19:31:51.256Z,84
2016-06-18T19:32:50.196Z,80
2016-06-18T19:33:50.902Z,72
2016-06-18T19:34:50.828Z,68
2016-06-18T19:36:04.050Z,60
2016-06-18T19:36:48.976Z,56
2016-06-18T19:37:50.026Z,52
2016-06-18T19:39:49.830Z,40
2016-06-18T19:40:50.927Z,40
2016-06-18T19:41:49.259Z,36
2016-06-18T19:42:49.871Z,32
2016-06-18T19:43:49.937Z,28
2016-06-18T19:44:49.862Z,24
2016-06-18T19:45:49.898Z,24
2016-06-18T19:46:49.682Z,20
2016-06-18T19:47:49.107Z,16
2016-06-18T19:48:49.704Z,16
2016-06-18T19:49:49.130Z,16
2016-06-18T19:50:49.305Z,12
2016-06-18T19:52:49.734Z,8
2016-06-18T19:53:49.129Z,8
2016-06-18T19:54:50.616Z,4
2016-06-18T19:56:04.183Z,8
2016-06-18T19:57:50.845Z,8
2016-06-18T19:58:50.442Z,4
2016-06-18T19:59:51.086Z,4
2016-06-18T20:00:50.012Z,4
2016-06-18T20:01:51.546Z,4
2016-06-18T20:02:50.049Z,4
2016-06-18T20:03:49.491Z,0
2016-06-18T20:04:50.181Z,4
2016-06-18T20:05:50.060Z,4
2016-06-18T20:06:49.641Z,4
2016-06-18T20:08:04.130Z,4
2016-06-18T20:09:06.008Z,0
2016-06-18T20:10:05.418Z,0
2016-06-18T20:10:51.172Z,0
2016-06-18T20:12:05.003Z,0
2016-06-18T20:13:04.959Z,0
2016-06-18T20:14:04.760Z,0
2016-06-18T20:14:50.842Z,0
2016-06-18T20:15:50.378Z,0
2016-06-18T20:16:50.616Z,0
2016-06-18T20:17:49.994Z,0
2016-06-18T20:19:05.060Z,0
2016-06-18T20:19:51.455Z,0
2016-06-18T20:20:50.006Z,0
2016-06-18T20:21:50.040Z,0
2016-06-18T20:25:50.680Z,0
2016-06-18T20:26:50.933Z,0
2016-06-18T20:27:50.734Z,0
2016-06-18T20:28:50.753Z,0
2016-06-18T20:29:50.085Z,0
2016-06-18T20:32:05.373Z,0
2016-06-18T20:32:50.189Z,0
2016-06-18T20:34:05.177Z,0
2016-06-18T20:34:50.758Z,0
2016-06-18T20:35:50.136Z,0
2016-06-18T20:36:49.515Z,0
2016-06-18T20:37:49.549Z,0
2016-06-18T20:38:49.960Z,0
2016-06-18T20:39:49.744Z,0
2016-06-18T20:41:50.860Z,0
2016-06-18T20:43:04.488Z,0
2016-06-18T20:43:49.805Z,0
2016-06-18T20:45:49.812Z,0
2016-06-18T20:46:51.737Z,0
2016-06-18T20:47:50.242Z,0
2016-06-18T20:48:51.135Z,0
2016-06-18T20:50:04.482Z,0
2016-06-18T20:50:51.548Z,0
2016-06-18T20:51:51.145Z,0
2016-06-18T20:52:50.946Z,0
2016-06-18T20:53:51.776Z,0
2016-06-18T20:55:05.390Z,0
2016-06-18T20:55:51.612Z,0
2016-06-18T20:56:50.350Z,0
2016-06-18T20:58:05.618Z,0
2016-06-18T20:59:50.563Z,0
2016-06-18T21:01:04.582Z,0
2016-06-18T21:01:50.382Z,0
2016-06-18T21:02:50.355Z,0
2016-06-18T21:03:50.608Z,0
2016-06-18T21:04:49.971Z,0
2016-06-18T21:05:50.585Z,0
2016-06-18T21:06:50.665Z,0
2016-06-18T21:07:51.481Z,0
2016-06-18T21:08:50.657Z,0
2016-06-18T21:09:50.895Z,0
2016-06-18T21:10:49.820Z,0
2016-06-18T21:13:05.295Z,0
2016-06-18T21:13:50.049Z,0
2016-06-18T21:14:50.256Z,0
2016-06-18T21:15:51.134Z,0
2016-06-18T21:16:51.153Z,0
2016-06-18T21:18:50.848Z,0
2016-06-18T21:19:50.945Z,0
2016-06-18T21:20:50.776Z,0
2016-06-18T21:22:06.034Z,0
2016-06-18T21:22:50.588Z,0
2016-06-18T21:24:52.290Z,0
2016-06-18T21:25:52.298Z,0
2016-06-18T21:27:05.911Z,0
2016-06-18T21:27:50.916Z,0
2016-06-18T21:28:50.921Z,0
2016-06-18T21:29:50.644Z,0
2016-06-18T21:31:05.727Z,0
2016-06-18T21:32:05.856Z,0
2016-06-18T21:32:50.906Z,0
2016-06-18T21:33:50.269Z,0
2016-06-18T21:34:50.914Z,0
2016-06-18T21:35:50.996Z,0
2016-06-18T21:36:51.203Z,0
2016-06-18T21:37:51.379Z,0
2016-06-18T21:39:05.148Z,0
2016-06-18T21:40:51.484Z,0
2016-06-18T21:41:51.003Z,0
2016-06-18T21:42:50.788Z,0
2016-06-18T21:43:51.417Z,0
2016-06-18T21:44:52.451Z,0
2016-06-18T21:45:50.813Z,0
2016-06-18T21:46:51.020Z,0
2016-06-18T21:48:05.867Z,0
2016-06-18T21:48:50.668Z,0
2016-06-18T21:49:51.249Z,0
2016-06-18T21:50:50.706Z,0
2016-06-18T21:51:50.195Z,0
2016-06-18T21:53:06.541Z,0
2016-06-18T21:53:50.874Z,0
2016-06-18T21:54:50.423Z,0
2016-06-18T21:55:50.880Z,0
2016-06-18T21:56:51.962Z,0
2016-06-18T21:57:50.840Z,0
2016-06-18T21:58:51.328Z,0
2016-06-18T21:59:50.550Z,0
2016-06-18T22:00:51.147Z,0
2016-06-18T22:01:51.963Z,0
2016-06-18T22:02:50.950Z,0
2016-06-18T22:06:05.555Z,0
2016-06-18T22:06:50.964Z,0
2016-06-18T22:08:06.859Z,0
2016-06-18T22:08:51.596Z,0
2016-06-18T22:09:52.022Z,0
2016-06-18T22:11:52.232Z,0
2016-06-18T22:13:06.860Z,0
2016-06-18T22:13:52.051Z,0
2016-06-18T22:15:07.116Z,0
2016-06-18T22:15:51.058Z,0
2016-06-18T22:18:51.069Z,0
2016-06-18T22:19:51.931Z,0
2016-06-18T22:21:06.982Z,0
2016-06-18T22:21:52.501Z,0
2016-06-18T22:22:51.302Z,0
2016-06-18T22:23:51.742Z,0
2016-06-18T22:25:06.542Z,0
2016-06-18T22:25:52.576Z,0
2016-06-18T22:28:05.959Z,0
2016-06-18T22:28:51.181Z,0
2016-06-18T22:30:06.201Z,0
2016-06-18T22:30:51.799Z,0
2016-06-18T22:31:52.023Z,0
2016-06-18T22:33:06.199Z,0
2016-06-18T22:34:05.391Z,0
2016-06-18T22:36:06.431Z,0
2016-06-18T22:37:05.404Z,0
2016-06-18T22:38:07.064Z,0
2016-06-18T22:39:08.098Z,0
2016-06-18T22:41:52.093Z,0
2016-06-18T22:42:52.675Z,0
2016-06-18T22:44:51.713Z,0
2016-06-18T22:45:52.106Z,0
2016-06-18T22:46:50.846Z,0
2016-06-18T22:48:07.348Z,0
2016-06-18T22:50:05.715Z,0
2016-06-18T22:51:52.644Z,0
2016-06-18T22:53:07.428Z,0
2016-06-18T22:53:52.198Z,0
2016-06-18T22:54:51.607Z,0
2016-06-18T22:56:51.864Z,0
2016-06-18T22:59:07.231Z,0
2016-06-18T22:59:50.952Z,0
2016-06-18T23:00:52.237Z,0
2016-06-18T23:02:07.100Z,0
2016-06-18T23:02:51.853Z,0
2016-06-18T23:04:06.248Z,0
2016-06-18T23:04:51.439Z,0
2016-06-18T23:05:50.770Z,0
2016-06-18T23:06:51.633Z,0
2016-06-18T23:08:05.637Z,0
2016-06-18T23:08:51.906Z,0
2016-06-18T23:09:52.315Z,0
2016-06-18T23:11:52.104Z,0
2016-06-18T23:12:50.857Z,0
2016-06-18T23:13:53.203Z,0
2016-06-18T23:14:52.129Z,0
2016-06-18T23:15:52.743Z,0
2016-06-18T23:16:52.761Z,0
2016-06-18T23:18:51.940Z,0
2016-06-18T23:20:21.382Z,0
2016-06-18T23:20:51.540Z,0
2016-06-18T23:22:05.967Z,0
2016-06-18T23:23:05.954Z,0
2016-06-18T23:23:51.785Z,0
2016-06-18T23:24:51.116Z,0
2016-06-18T23:26:51.437Z,0
2016-06-18T23:27:51.768Z,0
2016-06-18T23:29:51.775Z,0
2016-06-18T23:30:50.951Z,0
2016-06-18T23:31:50.970Z,0
2016-06-18T23:32:50.988Z,0
2016-06-18T23:33:51.180Z,0
2016-06-18T23:34:50.980Z,0
2016-06-18T23:36:51.033Z,0
2016-06-18T23:37:51.037Z,0
2016-06-18T23:38:51.027Z,0
2016-06-18T23:39:51.031Z,0
2016-06-18T23:40:51.037Z,0
2016-06-18T23:41:51.244Z,0
2016-06-18T23:42:51.060Z,0
2016-06-18T23:43:51.689Z,0
2016-06-18T23:44:51.692Z,0
2016-06-18T23:46:51.904Z,0
2016-06-18T23:47:51.314Z,0
2016-06-18T23:48:51.926Z,0
2016-06-18T23:49:51.118Z,0
2016-06-18T23:51:52.156Z,0
2016-06-18T23:52:51.956Z,0
2016-06-18T23:53:51.788Z,0
2016-06-18T23:56:51.782Z,0
2016-06-18T23:58:53.258Z,0
2016-06-18T23:59:53.714Z,0
